Catalina, CA

2:12 AM PDT on May 06, 2015 (GMT -0700)
San Clemente Island | | Change Station
CLOSE
Current Station
Airport
Location: San Clemente Island,
Elevation: 180 ft
Nearby Weather Stations

Elev 180 ft 33.02 °N, 118.59 °W | Updated 8 hours ago

Overcast
Overcast
57 °F
Feels Like 57 °F
N
4
Wind Variable Wind from WSW
Gusts mph

Today
High -- | Low -- °F
--% Chance of Precip.
Yesterday
High -- | Low -- °F
Precip. -- in
6:00 AM 7:40 PM
Waning Gibbous, 95% visible
Pressure 29.96 in
Visibility 10.0 miles
Clouds Few 2000 ft
Mostly Cloudy 3200 ft
Overcast 25000 ft
Dew Point 49 °F
Humidity 76%
Rainfall 0.00 in
Snow Depth Not available.
UV 0 out of 12
Pollen 5.60 out of 12
Air Quality Not available.
Flu Activity Sporadic
METAR KNUC 060056Z 27008KT 10SM FEW020 BKN032 OVC250 16/10 A2997 RMK SLP144 LAST T01560100

More Conditions Fewer Conditions

Pressure 29.96 in
Visibility 10.0 miles
Clouds Few 2000 ft
Mostly Cloudy 3200 ft
Overcast 25000 ft
Dew Point 49 °F
Humidity 76%
Rainfall 0.00 in
Snow Depth Not available.
UV 0 out of 12
Pollen 5.60 out of 12
Air Quality Not available.
Flu Activity Sporadic
METAR KNUC 060056Z 27008KT 10SM FEW020 BKN032 OVC250 16/10 A2997 RMK SLP144 LAST T01560100

More Conditions Fewer Conditions

10-Day Weather Forecast

Almanac

Astronomy

May. 06, 2015 Rise Set
Actual Time
Civil Twilight
Nautical Twilight
Astronomical Twilight
Moon
Length of Visible Light
Length of Day
Tomorrow will be .
, % of the Moon is Illuminated

Today's Extremes

State Highs State Lows

Community

WunderPhotos

Upload Photos

1,818,858 photos uploaded!

WunderBlogs® & News

Nearby

Air Quality

  Air Quality AQ Index Pollutant
Not available.

Snow Depth

Station Depth Elevation

Earthquake Activity

City Distance Mag. Time & Date
Minimum magnitude displayed is 2.5.

Coastal Water Temperatures

Place Temperature

Stations

Nearby Weather Stations

Station Location Temp. Windchill Dew Point Humidity Wind Precip. Elev Updated Type